createdAt,value
2022-11-27T00:01:56.218Z,38.51
2022-11-27T00:08:20.642Z,38.57
2022-11-27T00:14:45.086Z,38.69
2022-11-27T00:21:09.543Z,38.80
2022-11-27T00:27:33.809Z,38.90
2022-11-27T00:33:57.919Z,38.97
2022-11-27T00:40:22.300Z,39.07
2022-11-27T00:46:46.955Z,39.14
2022-11-27T00:53:11.553Z,39.20
2022-11-27T00:59:35.866Z,39.32
2022-11-27T01:06:00.287Z,39.44
2022-11-27T01:12:24.659Z,39.50
2022-11-27T01:18:49.305Z,39.64
2022-11-27T01:25:13.580Z,39.78
2022-11-27T01:31:40.811Z,39.84
2022-11-27T01:38:05.202Z,39.93
2022-11-27T01:44:44.807Z,40.10
2022-11-27T01:51:09.272Z,40.34
2022-11-27T01:57:33.574Z,40.48
2022-11-27T02:03:57.992Z,40.61
2022-11-27T02:10:22.355Z,40.72
2022-11-27T02:16:46.839Z,40.78
2022-11-27T02:23:17.510Z,40.93
2022-11-27T02:29:51.109Z,41.03
2022-11-27T02:36:33.576Z,41.17
2022-11-27T02:42:57.961Z,41.24
2022-11-27T02:49:24.840Z,41.36
2022-11-27T02:55:49.345Z,41.42
2022-11-27T03:02:13.822Z,41.46
2022-11-27T03:08:44.029Z,41.51
2022-11-27T03:15:08.319Z,41.63
2022-11-27T03:21:32.845Z,41.75
2022-11-27T03:27:57.326Z,41.79
2022-11-27T03:34:21.650Z,41.90
2022-11-27T03:40:46.179Z,41.95
2022-11-27T03:47:10.630Z,42.00
2022-11-27T03:53:59.502Z,42.02
2022-11-27T04:00:23.907Z,42.04
2022-11-27T04:06:48.335Z,42.13
2022-11-27T04:13:12.712Z,42.14
2022-11-27T04:19:37.016Z,42.19
2022-11-27T04:26:01.326Z,42.32
2022-11-27T04:32:25.589Z,42.43
2022-11-27T04:38:49.954Z,42.50
2022-11-27T04:45:14.272Z,42.52
2022-11-27T04:51:38.678Z,42.57
2022-11-27T04:58:02.991Z,42.59
2022-11-27T05:04:30.063Z,42.61
2022-11-27T05:10:54.499Z,42.67
2022-11-27T05:17:18.879Z,42.78
2022-11-27T05:23:43.288Z,42.88
2022-11-27T05:30:07.696Z,42.95
2022-11-27T05:36:32.024Z,42.94
2022-11-27T05:42:41.528Z,42.90
2022-11-27T05:49:05.879Z,42.99
2022-11-27T05:55:30.227Z,42.95
2022-11-27T06:01:54.625Z,42.84
2022-11-27T06:08:19.052Z,42.68
2022-11-27T06:14:43.482Z,42.49
2022-11-27T06:21:08.085Z,42.25
2022-11-27T06:27:32.505Z,42.04
2022-11-27T06:33:56.767Z,41.78
2022-11-27T06:40:21.302Z,41.54
2022-11-27T06:46:45.648Z,41.26
2022-11-27T06:53:10.043Z,41.05
2022-11-27T06:59:37.186Z,40.83
2022-11-27T07:06:01.731Z,40.70
2022-11-27T07:12:26.043Z,40.55
2022-11-27T07:18:50.365Z,40.46
2022-11-27T07:25:14.649Z,40.32
2022-11-27T07:31:39.005Z,40.18
2022-11-27T07:38:04.250Z,40.00
2022-11-27T07:44:28.517Z,39.86
2022-11-27T07:50:53.031Z,39.91
2022-11-27T07:57:17.332Z,40.11
2022-11-27T08:03:41.631Z,40.24
2022-11-27T08:10:06.088Z,40.36
2022-11-27T08:16:30.565Z,40.50
2022-11-27T08:22:59.526Z,40.64
2022-11-27T08:29:32.578Z,40.70
2022-11-27T08:35:58.476Z,40.71
2022-11-27T08:42:22.861Z,40.64
2022-11-27T08:48:47.392Z,40.59
2022-11-27T08:55:11.790Z,40.48
2022-11-27T09:01:36.186Z,40.39
2022-11-27T09:08:00.660Z,40.30
2022-11-27T09:14:25.284Z,40.23
2022-11-27T09:20:49.964Z,40.15
2022-11-27T09:27:14.246Z,40.09
2022-11-27T09:33:32.311Z,39.98
2022-11-27T09:39:56.687Z,39.84
2022-11-27T09:46:23.730Z,39.74
2022-11-27T09:52:53.605Z,39.70
2022-11-27T09:59:20.440Z,39.70
2022-11-27T10:05:44.845Z,39.70
2022-11-27T10:12:11.730Z,39.66
2022-11-27T10:18:36.129Z,39.64
2022-11-27T10:25:03.425Z,39.63
2022-11-27T10:31:33.613Z,39.63
2022-11-27T10:38:07.277Z,39.60
2022-11-27T10:44:31.522Z,39.58
2022-11-27T10:50:55.895Z,39.51
2022-11-27T10:57:30.915Z,39.50
2022-11-27T11:04:10.191Z,39.33
2022-11-27T11:10:45.801Z,39.28
2022-11-27T11:17:13.067Z,39.19
2022-11-27T11:23:38.032Z,39.07
2022-11-27T11:30:08.170Z,38.99
2022-11-27T11:36:35.214Z,39.06
2022-11-27T11:42:59.532Z,39.21
2022-11-27T11:49:16.524Z,39.24
2022-11-27T11:55:40.906Z,39.20
2022-11-27T12:02:23.591Z,39.14
2022-11-27T12:08:51.038Z,39.13
2022-11-27T12:15:27.249Z,39.08
2022-11-27T12:21:54.256Z,39.03
2022-11-27T12:28:42.944Z,38.96
2022-11-27T12:35:19.281Z,38.89
2022-11-27T12:41:46.817Z,39.00
2022-11-27T12:48:12.434Z,39.17
2022-11-27T12:54:42.830Z,39.14
2022-11-27T13:01:07.511Z,39.10
2022-11-27T13:07:31.936Z,39.16
2022-11-27T13:13:59.063Z,39.24
2022-11-27T13:20:32.416Z,39.39
2022-11-27T13:26:56.895Z,39.67
2022-11-27T13:33:24.210Z,40.05
2022-11-27T13:40:02.354Z,40.18
2022-11-27T13:46:27.447Z,40.14
2022-11-27T13:52:54.598Z,40.16
2022-11-27T13:59:19.037Z,40.13
2022-11-27T14:05:49.498Z,40.06
2022-11-27T14:12:14.915Z,39.84
2022-11-27T14:18:45.000Z,39.91
2022-11-27T14:25:14.251Z,40.08
2022-11-27T14:31:44.806Z,40.06
2022-11-27T14:38:09.160Z,39.98
2022-11-27T14:44:42.210Z,39.80
2022-11-27T14:50:49.589Z,39.06
2022-11-27T14:57:13.972Z,37.99
2022-11-27T15:03:38.440Z,37.88
2022-11-27T15:10:03.144Z,37.91
2022-11-27T15:16:27.579Z,37.66
2022-11-27T15:22:51.958Z,37.84
2022-11-27T15:29:34.620Z,38.21
2022-11-27T15:36:04.548Z,38.53
2022-11-27T15:42:31.937Z,38.86
2022-11-27T15:48:59.168Z,39.12
2022-11-27T15:55:23.608Z,39.41
2022-11-27T16:01:47.976Z,39.49
2022-11-27T16:07:55.744Z,39.53
2022-11-27T16:14:20.270Z,39.62
2022-11-27T16:20:44.657Z,39.58
2022-11-27T16:27:09.210Z,39.57
2022-11-27T16:33:33.508Z,39.57
2022-11-27T16:39:56.607Z,39.49
2022-11-27T16:46:21.070Z,39.41
2022-11-27T16:52:48.961Z,39.26
2022-11-27T16:59:17.286Z,39.16
2022-11-27T17:05:41.628Z,39.04
2022-11-27T17:12:11.864Z,38.96
2022-11-27T17:18:36.207Z,38.93
2022-11-27T17:25:00.573Z,38.89
2022-11-27T17:31:24.975Z,38.81
2022-11-27T17:37:43.165Z,38.83
2022-11-27T17:44:07.595Z,38.76
2022-11-27T17:50:32.145Z,38.73
2022-11-27T17:56:56.007Z,38.75
2022-11-27T18:03:20.391Z,38.65
2022-11-27T18:09:44.822Z,38.22
2022-11-27T18:16:01.923Z,38.22
2022-11-27T18:22:26.354Z,38.17
2022-11-27T18:28:50.779Z,38.14
2022-11-27T18:35:14.964Z,37.98
2022-11-27T18:41:48.433Z,38.03
2022-11-27T18:48:12.828Z,38.19
2022-11-27T18:54:37.124Z,38.34
2022-11-27T19:01:01.567Z,38.39
2022-11-27T19:07:25.992Z,38.34
2022-11-27T19:13:50.695Z,38.28
2022-11-27T19:20:15.016Z,38.35
2022-11-27T19:26:39.292Z,38.23
2022-11-27T19:33:03.593Z,38.14
2022-11-27T19:39:27.988Z,38.03
2022-11-27T19:45:52.511Z,37.97
2022-11-27T19:52:16.962Z,37.94
2022-11-27T19:58:41.504Z,37.91
2022-11-27T20:05:05.859Z,37.90
2022-11-27T20:11:14.626Z,37.97
2022-11-27T20:17:38.968Z,37.99
2022-11-27T20:24:03.251Z,37.95
2022-11-27T20:30:27.554Z,37.93
2022-11-27T20:36:54.621Z,37.93
2022-11-27T20:43:18.760Z,37.94
2022-11-27T20:49:43.395Z,37.94
2022-11-27T20:56:08.172Z,37.95
2022-11-27T21:02:32.804Z,37.94
2022-11-27T21:08:57.177Z,37.93
2022-11-27T21:15:21.512Z,37.94
2022-11-27T21:21:45.938Z,37.91
2022-11-27T21:28:10.245Z,37.88
2022-11-27T21:34:34.579Z,37.89
2022-11-27T21:40:58.966Z,37.86
2022-11-27T21:47:23.414Z,37.93
2022-11-27T21:53:43.254Z,38.02
2022-11-27T22:00:07.553Z,38.11
2022-11-27T22:06:40.799Z,38.19
2022-11-27T22:13:05.260Z,38.26
2022-11-27T22:19:29.599Z,38.34
2022-11-27T22:25:53.954Z,38.43
2022-11-27T22:32:18.218Z,38.53
2022-11-27T22:38:42.614Z,38.61
2022-11-27T22:45:06.992Z,38.72
2022-11-27T22:51:31.504Z,38.82
2022-11-27T22:57:55.510Z,38.92
2022-11-27T23:04:19.857Z,39.05
2022-11-27T23:10:44.186Z,39.16
2022-11-27T23:17:08.664Z,39.28
2022-11-27T23:23:33.146Z,39.37
2022-11-27T23:29:57.417Z,39.47
2022-11-27T23:36:21.684Z,39.52
2022-11-27T23:42:45.971Z,39.61
2022-11-27T23:49:10.254Z,39.67
2022-11-27T23:55:34.459Z,39.78
